To NAV CANADA Home Page Login to a new session Search on AWWS site Feedback and Comments Disclaimer Vers la page française équivalente Tips FAQ What's new on the site To the Forecasts and Observations / NOTAM section To "File a Flight Plan" website Publications and other links Update of the User's profile FIC Telephone Numbers My Weather Data Folder Route Weather Data Regional Weather Data Local Weather Data To the Forecasts and Observations / NOTAM section
Request Generated 05/25/2017 at 01:08:20 UTC . Weather information available at that time is displayed.

METAR/TAF

EARLTON/EARLTON (TIMISKAMING REGIONAL)/ON    (show WxCam)

METAR CYXR 250100Z AUTO 33004KT 9SM SCT100 BKN120 BKN140 14/10 A2980
RMK SLP097 DENSITY ALT 900FT=
METAR CYXR 250000Z AUTO 01005KT 9SM BKN055 OVC072 15/11 A2979 RMK
SLP095 DENSITY ALT 1000FT=
METAR CYXR 242300Z AUTO 35005KT 9SM BKN055 BKN065 OVC076 15/10 A2979
RMK SLP093 DENSITY ALT 1100FT=

*** REMARK        : Forecast period has ended; this was the last TAF issued
*** REMARQUE : La période de prévision est échue; ceci était le dernier TAF qui a été émis
TAF CYXR 241741Z 2418/2424 02006KT P6SM SCT020 BKN050 TEMPO 2418/2424
5SM -SHRA BR BKN020 OVC050
RMK FCST BASED ON AUTO OBS. NXT FCST WILL BE ISSUED AT 251145Z=
Your time UTC time
Weather data provided by Environment Canada and NAV CANADA